Time;durP1;ratioP1;P1;durP2;ratioP2;P2;SDS_P1;SDS_P2;PMS_P1;PMS_P2;Temp;Humidity;BMP_temperature;BMP_pressure;BME280_temperature;BME280_humidity;BME280_pressure;Samples;Min_cycle;Max_cycle;Signal;HPM_P1;HPM_P2
2023/09/06 00:00:55;;;;;;;15.40;13.90;;;20.60;99.90;;;;;;5051390;28;20117;-73
2023/09/06 00:03:21;;;;;;;14.10;12.70;;;20.60;99.90;;;;;;5051259;28;20078;-73
2023/09/06 00:05:47;;;;;;;14.75;13.20;;;20.60;99.90;;;;;;5050955;28;20045;-73
2023/09/06 00:08:14;;;;;;;15.20;13.00;;;20.50;99.90;;;;;;5052566;28;20048;-73
2023/09/06 00:10:43;;;;;;;14.98;12.43;;;20.40;99.90;;;;;;5054829;28;20141;-72
2023/09/06 00:13:11;;;;;;;14.30;12.85;;;20.50;99.90;;;;;;5037386;28;20084;-71
2023/09/06 00:15:37;;;;;;;13.70;12.13;;;20.40;99.90;;;;;;5054433;28;20056;-72
2023/09/06 00:18:07;;;;;;;15.35;13.77;;;20.40;99.90;;;;;;5053762;28;20095;-72
2023/09/06 00:20:34;;;;;;;14.43;12.93;;;20.40;99.90;;;;;;5054458;28;20041;-72
2023/09/06 00:23:04;;;;;;;14.70;13.00;;;20.40;99.90;;;;;;5055181;28;20418;-73
2023/09/06 00:25:33;;;;;;;15.43;12.48;;;20.30;99.90;;;;;;5054478;28;20106;-72
2023/09/06 00:28:01;;;;;;;15.55;12.77;;;20.30;99.90;;;;;;5053592;28;20049;-72
2023/09/06 00:30:26;;;;;;;14.98;13.20;;;20.30;99.90;;;;;;5053361;28;20509;-72
2023/09/06 00:32:55;;;;;;;15.80;12.63;;;20.30;99.90;;;;;;5052909;28;20049;-72
2023/09/06 00:35:25;;;;;;;15.15;12.27;;;20.30;99.90;;;;;;5051512;28;20056;-73
2023/09/06 00:37:51;;;;;;;12.57;11.27;;;20.30;99.90;;;;;;5052778;28;20440;-72
2023/09/06 00:40:18;;;;;;;13.68;11.65;;;20.30;99.90;;;;;;5053458;28;20072;-72
2023/09/06 00:42:59;;;;;;;14.70;12.15;;;20.20;99.90;;;;;;5052276;28;20053;-72
2023/09/06 00:45:36;;;;;;;13.90;11.65;;;20.10;99.90;;;;;;5070075;28;20124;-72
2023/09/06 00:48:05;;;;;;;13.57;12.32;;;20.10;99.90;;;;;;5054303;28;20106;-72
2023/09/06 00:50:35;;;;;;;14.40;12.95;;;20.10;99.90;;;;;;5054185;28;20045;-71
2023/09/06 00:53:04;;;;;;;17.15;13.85;;;20.10;99.90;;;;;;5052874;28;20182;-72
2023/09/06 00:55:30;;;;;;;14.63;13.18;;;20.00;99.90;;;;;;5054175;28;20071;-72
2023/09/06 00:57:56;;;;;;;16.55;14.32;;;20.00;99.90;;;;;;5053672;28;20092;-72
2023/09/06 01:00:24;;;;;;;15.27;13.77;;;20.00;99.90;;;;;;5054115;28;20037;-72
2023/09/06 01:02:51;;;;;;;15.48;13.98;;;20.00;99.90;;;;;;5053809;28;20045;-73
2023/09/06 01:05:19;;;;;;;16.30;14.70;;;19.90;99.90;;;;;;5052767;28;20098;-72
2023/09/06 01:07:49;;;;;;;15.13;13.52;;;19.90;99.90;;;;;;5052525;28;20047;-72
2023/09/06 01:10:15;;;;;;;16.58;14.90;;;19.90;99.90;;;;;;5086131;28;20084;-72
2023/09/06 01:12:41;;;;;;;17.35;14.45;;;19.90;99.90;;;;;;5053603;28;20150;-72
2023/09/06 01:15:07;;;;;;;16.80;14.98;;;19.90;99.90;;;;;;5003602;28;20513;-72
2023/09/06 01:17:36;;;;;;;16.10;14.43;;;19.90;99.90;;;;;;5053642;28;20495;-72
2023/09/06 01:20:17;;;;;;;15.60;13.95;;;19.90;99.90;;;;;;5052569;28;20080;-71
2023/09/06 01:23:03;;;;;;;16.15;13.65;;;19.80;99.90;;;;;;5053500;28;20423;-72
2023/09/06 01:25:29;;;;;;;16.90;14.57;;;19.80;99.90;;;;;;5053830;28;20380;-71
2023/09/06 01:27:55;;;;;;;18.00;14.48;;;19.80;99.90;;;;;;5051920;28;20044;-72
2023/09/06 01:30:21;;;;;;;16.92;15.13;;;19.70;99.90;;;;;;5086044;28;20080;-72
2023/09/06 01:32:46;;;;;;;17.77;15.80;;;19.60;99.90;;;;;;5052043;28;20122;-72
2023/09/06 01:35:12;;;;;;;17.40;15.27;;;19.60;99.90;;;;;;5053562;28;20049;-72
2023/09/06 01:37:38;;;;;;;17.02;14.77;;;19.60;99.90;;;;;;5053320;28;20068;-72
2023/09/06 01:40:14;;;;;;;17.33;15.52;;;19.60;99.90;;;;;;5051863;28;20099;-72
2023/09/06 01:42:40;;;;;;;16.23;14.52;;;19.50;99.90;;;;;;5085561;28;20049;-72
2023/09/06 01:45:06;;;;;;;17.10;15.25;;;19.50;99.90;;;;;;5052800;28;20050;-72
2023/09/06 01:47:32;;;;;;;18.60;15.68;;;19.50;99.90;;;;;;5053457;28;20076;-72
2023/09/06 01:49:58;;;;;;;17.67;15.88;;;19.40;99.90;;;;;;5051242;28;20108;-72
2023/09/06 01:52:23;;;;;;;18.20;15.13;;;19.40;99.90;;;;;;5053224;28;20053;-73
2023/09/06 01:54:49;;;;;;;20.52;15.45;;;19.40;99.90;;;;;;5035118;28;20060;-72
2023/09/06 01:57:15;;;;;;;20.10;15.75;;;19.40;99.90;;;;;;5053346;28;20201;-71
2023/09/06 01:59:40;;;;;;;20.02;15.63;;;19.30;99.90;;;;;;5051676;28;20037;-73
2023/09/06 02:02:07;;;;;;;16.77;14.98;;;19.30;99.90;;;;;;5052108;28;20041;-73
2023/09/06 02:04:33;;;;;;;18.13;16.23;;;19.30;99.90;;;;;;5035361;28;20184;-71
2023/09/06 02:07:02;;;;;;;16.73;14.98;;;19.30;99.90;;;;;;5084951;28;20142;-72
2023/09/06 02:09:28;;;;;;;17.77;15.48;;;19.20;99.90;;;;;;5018923;28;20037;-73
2023/09/06 02:11:55;;;;;;;17.77;15.05;;;19.30;99.90;;;;;;5051070;28;20098;-72
2023/09/06 02:14:22;;;;;;;16.38;14.43;;;19.30;99.90;;;;;;5052703;28;20072;-72
2023/09/06 02:16:50;;;;;;;17.17;14.95;;;19.20;99.90;;;;;;5052370;28;20107;-72
2023/09/06 02:19:16;;;;;;;17.88;15.63;;;19.20;99.90;;;;;;5052267;28;20091;-73
2023/09/06 02:21:42;;;;;;;16.10;14.35;;;19.20;99.90;;;;;;5053046;28;20045;-72
2023/09/06 02:24:08;;;;;;;17.15;14.57;;;19.20;99.90;;;;;;5034340;28;20117;-72
2023/09/06 02:26:35;;;;;;;14.98;13.38;;;19.20;99.90;;;;;;5052126;28;20557;-72
2023/09/06 02:29:00;;;;;;;16.00;14.30;;;19.20;99.90;;;;;;5051832;28;20041;-72
2023/09/06 02:31:26;;;;;;;16.85;14.80;;;19.20;99.90;;;;;;5051770;28;20049;-72
2023/09/06 02:33:52;;;;;;;16.80;15.10;;;19.20;99.90;;;;;;5051903;28;20513;-73
2023/09/06 02:36:18;;;;;;;16.25;14.55;;;19.10;99.90;;;;;;5052329;28;20052;-73
2023/09/06 02:38:44;;;;;;;18.45;14.82;;;19.10;99.90;;;;;;5052275;28;20402;-72
2023/09/06 02:41:09;;;;;;;16.23;14.57;;;19.00;99.90;;;;;;5050465;28;20044;-73
2023/09/06 02:43:37;;;;;;;15.98;13.45;;;19.00;99.90;;;;;;5052541;28;20049;-71
2023/09/06 02:46:03;;;;;;;16.85;13.55;;;19.00;99.90;;;;;;5034218;28;20049;-71
2023/09/06 02:48:29;;;;;;;17.58;13.70;;;19.00;99.90;;;;;;5084697;28;20049;-72
2023/09/06 02:50:58;;;;;;;21.63;14.05;;;19.00;99.90;;;;;;5051706;28;20075;-72
2023/09/06 02:53:26;;;;;;;18.45;13.60;;;19.00;99.90;;;;;;5034511;28;20478;-72
2023/09/06 02:55:53;;;;;;;22.70;13.65;;;18.90;99.90;;;;;;5050753;28;20049;-74
2023/09/06 02:58:24;;;;;;;15.50;13.27;;;19.00;99.90;;;;;;5051894;28;20045;-72
2023/09/06 03:00:55;;;;;;;15.10;13.43;;;18.90;99.90;;;;;;5051952;28;20098;-74
2023/09/06 03:03:22;;;;;;;15.40;13.75;;;18.90;99.90;;;;;;5051777;28;20049;-73
2023/09/06 03:05:47;;;;;;;19.40;13.75;;;18.90;99.90;;;;;;5052031;28;20048;-73
2023/09/06 03:08:14;;;;;;;13.88;12.35;;;18.90;99.90;;;;;;5051607;28;20148;-71
2023/09/06 03:10:41;;;;;;;16.48;13.70;;;18.90;99.90;;;;;;5034035;28;20033;-72
2023/09/06 03:13:09;;;;;;;14.25;12.75;;;18.90;99.90;;;;;;5083771;28;20060;-72
2023/09/06 03:15:35;;;;;;;15.80;12.75;;;18.80;99.90;;;;;;5034144;28;20151;-72
2023/09/06 03:18:02;;;;;;;16.92;12.73;;;18.80;99.90;;;;;;5050263;28;20081;-71
2023/09/06 03:20:42;;;;;;;13.65;12.10;;;18.80;99.90;;;;;;5050480;28;20053;-72
2023/09/06 03:23:19;;;;;;;15.85;12.18;;;18.80;99.90;;;;;;5033612;28;20053;-73
2023/09/06 03:25:49;;;;;;;13.65;12.18;;;18.70;99.90;;;;;;5051387;28;20513;-72
2023/09/06 03:28:18;;;;;;;18.20;12.80;;;18.70;99.90;;;;;;5083505;28;20051;-73
2023/09/06 03:30:44;;;;;;;16.48;13.05;;;18.70;99.90;;;;;;5051430;28;20383;-72
2023/09/06 03:33:10;;;;;;;14.13;12.73;;;18.70;99.90;;;;;;5051141;28;20048;-72
2023/09/06 03:35:36;;;;;;;14.40;12.52;;;18.70;99.90;;;;;;5050339;28;20067;-72
2023/09/06 03:38:03;;;;;;;15.85;13.48;;;18.60;99.90;;;;;;5051245;28;20049;-72
2023/09/06 03:40:36;;;;;;;15.63;13.10;;;18.60;99.90;;;;;;5049944;28;20052;-72
2023/09/06 03:43:14;;;;;;;14.40;12.90;;;18.50;99.90;;;;;;5052075;28;20049;-72
2023/09/06 03:45:44;;;;;;;15.90;13.18;;;18.50;99.90;;;;;;5055415;28;20049;-72
2023/09/06 03:48:12;;;;;;;17.85;13.35;;;18.40;99.90;;;;;;5054888;28;20425;-72
2023/09/06 03:50:38;;;;;;;15.50;13.90;;;18.30;99.90;;;;;;5021288;28;20055;-73
2023/09/06 03:53:04;;;;;;;16.38;13.25;;;18.30;99.90;;;;;;5053722;28;20041;-72
2023/09/06 03:55:34;;;;;;;14.52;12.90;;;18.30;99.90;;;;;;5054076;28;20120;-72
2023/09/06 03:58:04;;;;;;;15.15;12.95;;;18.30;99.90;;;;;;5037137;28;20089;-72
2023/09/06 04:00:31;;;;;;;14.07;12.70;;;18.30;99.90;;;;;;5055269;28;20041;-72
2023/09/06 04:02:58;;;;;;;17.27;13.07;;;18.20;99.90;;;;;;5055127;28;20111;-72
2023/09/06 04:05:27;;;;;;;14.93;13.05;;;18.20;99.90;;;;;;5055046;28;20040;-72
2023/09/06 04:07:57;;;;;;;17.10;13.00;;;18.20;99.90;;;;;;5053972;28;20120;-72
2023/09/06 04:10:45;;;;;;;15.70;11.90;;;18.20;99.90;;;;;;5037069;28;20060;-72
2023/09/06 04:13:12;;;;;;;12.43;11.13;;;18.20;99.90;;;;;;5054901;28;20099;-72
2023/09/06 04:15:42;;;;;;;13.18;11.88;;;18.20;99.90;;;;;;5053556;28;20124;-72
2023/09/06 04:18:12;;;;;;;14.85;11.82;;;18.10;99.90;;;;;;5087118;28;20049;-72
2023/09/06 04:20:39;;;;;;;15.63;11.50;;;18.10;99.90;;;;;;5053699;28;20370;-72
2023/09/06 04:23:13;;;;;;;13.18;11.20;;;18.10;99.90;;;;;;5054637;28;20052;-72
2023/09/06 04:25:44;;;;;;;15.15;12.27;;;18.10;99.90;;;;;;5053554;28;20521;-72
2023/09/06 04:28:12;;;;;;;13.18;11.32;;;18.10;99.90;;;;;;5054438;28;20490;-71
2023/09/06 04:30:42;;;;;;;12.95;10.82;;;18.10;99.90;;;;;;5053381;28;20053;-72
2023/09/06 04:33:13;;;;;;;12.18;10.35;;;18.10;99.90;;;;;;5054423;28;20124;-72
2023/09/06 04:35:44;;;;;;;11.88;10.55;;;18.10;99.90;;;;;;5053493;28;20127;-72
2023/09/06 04:38:11;;;;;;;12.43;10.77;;;18.10;99.90;;;;;;5054252;28;20109;-72
2023/09/06 04:40:38;;;;;;;12.18;10.88;;;18.00;99.90;;;;;;5053460;28;20045;-72
2023/09/06 04:43:05;;;;;;;12.13;10.60;;;18.10;99.90;;;;;;5086234;28;20071;-72
2023/09/06 04:45:31;;;;;;;14.73;11.07;;;18.00;99.90;;;;;;5053267;28;20045;-71
2023/09/06 04:47:57;;;;;;;11.27;10.15;;;18.00;99.90;;;;;;5053306;28;20431;-72
2023/09/06 04:50:24;;;;;;;11.45;10.25;;;18.00;99.90;;;;;;5036042;28;20134;-72
2023/09/06 04:52:53;;;;;;;13.77;10.35;;;17.90;99.90;;;;;;5069814;28;20049;-72
2023/09/06 04:55:19;;;;;;;12.48;10.40;;;17.90;99.90;;;;;;5035203;28;20052;-72
2023/09/06 04:57:46;;;;;;;10.90;9.80;;;17.90;99.90;;;;;;5053106;28;20188;-71
2023/09/06 05:00:30;;;;;;;11.43;9.88;;;17.90;99.90;;;;;;5053391;28;20033;-72
2023/09/06 05:02:57;;;;;;;11.93;10.23;;;17.80;99.90;;;;;;5054102;28;20048;-72
2023/09/06 05:05:24;;;;;;;14.88;10.40;;;17.80;99.90;;;;;;5053429;28;20051;-72
2023/09/06 05:07:50;;;;;;;14.02;10.95;;;17.80;99.90;;;;;;5054050;28;20426;-72
2023/09/06 05:10:16;;;;;;;12.25;9.70;;;17.70;99.90;;;;;;5052012;28;20505;-72
2023/09/06 05:12:42;;;;;;;12.52;11.20;;;17.70;99.90;;;;;;5053899;28;20048;-72
2023/09/06 05:15:08;;;;;;;12.70;10.93;;;17.70;99.90;;;;;;5053613;28;20061;-75
2023/09/06 05:17:35;;;;;;;11.40;10.20;;;17.70;99.90;;;;;;5053822;28;20123;-72
2023/09/06 05:20:27;;;;;;;12.13;10.45;;;17.60;99.90;;;;;;5053585;28;20141;-73
2023/09/06 05:22:55;;;;;;;11.20;10.00;;;17.60;99.90;;;;;;5053451;28;20521;-73
2023/09/06 05:25:21;;;;;;;11.82;10.00;;;17.60;99.90;;;;;;5052902;28;20052;-72
2023/09/06 05:27:46;;;;;;;15.18;10.05;;;17.60;99.90;;;;;;5035992;28;20445;-71
2023/09/06 05:30:12;;;;;;;15.25;10.05;;;17.60;99.90;;;;;;5052090;28;20045;-72
2023/09/06 05:32:38;;;;;;;17.55;10.13;;;17.70;99.90;;;;;;5053902;28;20049;-71
2023/09/06 05:35:04;;;;;;;14.82;10.07;;;17.70;99.90;;;;;;5053751;28;20098;-72
2023/09/06 05:37:30;;;;;;;12.23;8.60;;;17.90;99.90;;;;;;5053174;28;20521;-72
2023/09/06 05:39:56;;;;;;;12.27;8.25;;;18.50;99.90;;;;;;5053385;28;20045;-70
2023/09/06 05:42:22;;;;;;;14.57;7.32;;;19.30;99.90;;;;;;5052595;28;20061;-72
2023/09/06 05:44:47;;;;;;;9.95;7.53;;;20.10;99.90;;;;;;5051810;28;20102;-72
2023/09/06 05:47:13;;;;;;;9.60;7.47;;;20.80;99.90;;;;;;5051378;28;20053;-72
2023/09/06 05:49:40;;;;;;;11.48;6.70;;;21.50;99.90;;;;;;5053025;28;20542;-71
2023/09/06 05:52:06;;;;;;;10.43;6.55;;;22.10;99.90;;;;;;5052996;28;20122;-71
2023/09/06 05:54:32;;;;;;;8.57;6.28;;;22.60;99.90;;;;;;5051283;28;20081;-71
2023/09/06 05:56:57;;;;;;;9.25;5.97;;;22.90;99.90;;;;;;5052852;28;20041;-71
2023/09/06 05:59:26;;;;;;;8.15;6.47;;;22.80;99.90;;;;;;5051336;28;20418;-71
2023/09/06 06:01:52;;;;;;;9.05;6.28;;;22.60;99.90;;;;;;5052667;28;20045;-71
2023/09/06 06:04:17;;;;;;;9.70;6.30;;;22.70;99.90;;;;;;5051284;28;20128;-72
2023/09/06 06:06:43;;;;;;;11.20;5.82;;;22.70;99.90;;;;;;5051248;28;20055;-70
2023/09/06 06:09:11;;;;;;;9.30;5.85;;;22.80;99.90;;;;;;5051905;28;20056;-71
2023/09/06 06:11:40;;;;;;;8.73;5.85;;;23.00;99.90;;;;;;5068024;28;20052;-70
2023/09/06 06:14:06;;;;;;;9.68;5.65;;;22.70;99.90;;;;;;5052489;28;20067;-71
2023/09/06 06:16:32;;;;;;;12.70;5.97;;;22.60;99.90;;;;;;5039834;28;20045;-71
2023/09/06 06:18:58;;;;;;;9.18;5.70;;;22.50;99.90;;;;;;5050045;28;20055;-70
2023/09/06 06:21:27;;;;;;;8.50;5.43;;;22.50;99.90;;;;;;5051239;28;20124;-72
2023/09/06 06:23:54;;;;;;;8.20;5.20;;;22.70;99.90;;;;;;5052396;28;20055;-72
2023/09/06 06:26:20;;;;;;;9.23;5.78;;;22.90;99.90;;;;;;5052230;28;20053;-71
2023/09/06 06:28:47;;;;;;;9.25;5.20;;;23.20;99.90;;;;;;5052375;28;20128;-71
2023/09/06 06:31:13;;;;;;;9.75;5.55;;;23.10;99.90;;;;;;5052210;28;20049;-70
2023/09/06 06:33:39;;;;;;;9.07;5.57;;;23.00;99.90;;;;;;5050513;28;20072;-71
2023/09/06 06:36:05;;;;;;;14.85;6.05;;;22.80;99.90;;;;;;5084293;28;20123;-71
2023/09/06 06:38:32;;;;;;;7.38;5.43;;;22.60;99.90;;;;;;5033940;28;20112;-71
2023/09/06 06:40:57;;;;;;;9.80;5.40;;;22.30;99.90;;;;;;5051733;28;20503;-70
2023/09/06 06:43:23;;;;;;;7.53;5.95;;;22.10;99.90;;;;;;5052201;28;20091;-71
2023/09/06 06:45:56;;;;;;;15.88;5.57;;;22.00;99.90;;;;;;5051345;28;20119;-70
2023/09/06 06:48:22;;;;;;;7.50;5.50;;;22.00;99.90;;;;;;5034233;28;20093;-71
2023/09/06 06:50:48;;;;;;;8.93;5.28;;;22.10;99.90;;;;;;5042577;28;20497;-71
2023/09/06 06:53:14;;;;;;;7.75;5.50;;;22.10;99.90;;;;;;5047584;28;20048;-72
2023/09/06 06:55:40;;;;;;;8.50;5.75;;;22.10;99.90;;;;;;5050482;28;20479;-71
2023/09/06 06:58:10;;;;;;;10.00;6.15;;;22.10;99.90;;;;;;5052025;28;20418;-70
2023/09/06 07:00:35;;;;;;;7.82;5.90;;;21.90;99.90;;;;;;5036530;28;20413;-72
2023/09/06 07:03:02;;;;;;;10.23;5.90;;;21.80;99.90;;;;;;5034372;28;20127;-71
2023/09/06 07:05:27;;;;;;;8.18;5.72;;;21.70;99.90;;;;;;5050331;28;20080;-71
2023/09/06 07:07:54;;;;;;;5.93;5.10;;;21.60;99.90;;;;;;5050895;28;20073;-71
2023/09/06 07:10:21;;;;;;;7.43;5.40;;;21.60;99.90;;;;;;5051607;28;20053;-72
2023/09/06 07:12:48;;;;;;;9.23;5.72;;;21.60;99.90;;;;;;5051353;28;20398;-71
2023/09/06 07:15:14;;;;;;;8.85;5.88;;;21.80;99.90;;;;;;5034103;28;20122;-70
2023/09/06 07:17:41;;;;;;;6.85;5.10;;;22.50;99.90;;;;;;5051854;28;20482;-71
2023/09/06 07:20:07;;;;;;;6.28;5.35;;;23.50;99.90;;;;;;5054789;28;20481;-70
2023/09/06 07:22:33;;;;;;;7.65;5.40;;;24.40;99.90;;;;;;5054412;28;20420;-70
2023/09/06 07:24:58;;;;;;;11.57;5.50;;;24.80;99.90;;;;;;5054981;28;20071;-70
2023/09/06 07:27:25;;;;;;;7.90;5.10;;;24.70;99.90;;;;;;5054552;28;20535;-70
2023/09/06 07:29:51;;;;;;;9.20;4.97;;;24.40;99.90;;;;;;5055951;28;20048;-70
2023/09/06 07:32:17;;;;;;;9.05;4.63;;;24.10;99.90;;;;;;5054432;28;20131;-70
2023/09/06 07:34:44;;;;;;;7.45;5.10;;;23.90;99.90;;;;;;5037237;28;20041;-71
2023/09/06 07:37:10;;;;;;;8.07;4.57;;;23.70;99.90;;;;;;5054885;28;20167;-72
2023/09/06 07:39:36;;;;;;;8.07;5.15;;;23.50;99.90;;;;;;5037286;28;20151;-71
2023/09/06 07:42:04;;;;;;;5.50;4.63;;;23.50;99.90;;;;;;5054982;28;20507;-70
2023/09/06 07:44:32;;;;;;;6.07;4.30;;;23.90;99.90;;;;;;5037513;28;20109;-71
2023/09/06 07:46:59;;;;;;;5.60;4.05;;;24.50;99.90;;;;;;5041428;28;20041;-70
2023/09/06 07:49:26;;;;;;;6.40;4.40;;;25.50;99.90;;;;;;5054448;28;20148;-71
2023/09/06 07:51:52;;;;;;;6.68;4.40;;;26.40;99.90;;;;;;5053601;28;20119;-70
2023/09/06 07:54:18;;;;;;;6.72;4.25;;;27.20;99.90;;;;;;5037686;28;20053;-71
2023/09/06 07:56:47;;;;;;;5.40;3.50;;;28.00;99.90;;;;;;5054647;28;20075;-70
2023/09/06 07:59:13;;;;;;;6.22;3.53;;;28.60;99.90;;;;;;5055116;28;20041;-71
2023/09/06 08:01:39;;;;;;;5.93;3.78;;;29.20;99.90;;;;;;5054696;28;20048;-70
2023/09/06 08:04:05;;;;;;;5.78;3.05;;;29.90;99.90;;;;;;5055039;28;20095;-71
2023/09/06 08:06:31;;;;;;;5.03;3.10;;;30.50;99.90;;;;;;5037373;28;20442;-71
2023/09/06 08:08:58;;;;;;;5.82;3.30;;;30.80;99.10;;;;;;5054994;28;20120;-70
2023/09/06 08:11:24;;;;;;;10.05;3.53;;;31.10;98.30;;;;;;5053996;28;20095;-71
2023/09/06 08:13:50;;;;;;;4.55;3.05;;;31.70;98.30;;;;;;5054693;28;20080;-70
2023/09/06 08:16:16;;;;;;;9.52;3.05;;;32.20;97.90;;;;;;5037130;28;20086;-70
2023/09/06 08:18:42;;;;;;;7.38;3.20;;;32.90;97.50;;;;;;5052779;28;20457;-70
2023/09/06 08:21:08;;;;;;;7.53;3.10;;;33.30;96.80;;;;;;5053973;28;20132;-70
2023/09/06 08:23:34;;;;;;;7.80;3.13;;;33.40;96.50;;;;;;5054429;28;20128;-74
2023/09/06 08:26:00;;;;;;;122.80;9.35;;;33.60;96.00;;;;;;5054699;28;20136;-70
2023/09/06 08:28:25;;;;;;;12.80;3.40;;;33.50;95.70;;;;;;5054683;28;20098;-71
2023/09/06 08:30:51;;;;;;;16.65;3.63;;;33.70;95.70;;;;;;5053198;28;20085;-71
2023/09/06 08:33:17;;;;;;;5.95;3.10;;;33.70;95.50;;;;;;5053835;28;20045;-70
2023/09/06 08:35:42;;;;;;;8.52;3.30;;;33.70;95.10;;;;;;5053092;28;20053;-70
2023/09/06 08:38:09;;;;;;;5.97;2.70;;;33.70;95.30;;;;;;5053593;28;20037;-70
2023/09/06 08:40:36;;;;;;;6.22;2.60;;;33.70;94.90;;;;;;5036802;28;20047;-70
2023/09/06 08:43:03;;;;;;;7.28;3.13;;;34.00;95.20;;;;;;5053765;28;20472;-70
2023/09/06 08:45:29;;;;;;;4.70;2.40;;;34.30;94.60;;;;;;5053386;28;20049;-70
2023/09/06 08:47:56;;;;;;;4.75;2.85;;;34.50;94.70;;;;;;5052729;28;20053;-70
2023/09/06 08:50:23;;;;;;;5.38;2.53;;;34.30;94.30;;;;;;5053392;28;20049;-70
2023/09/06 08:52:50;;;;;;;4.25;2.35;;;34.60;94.20;;;;;;5053078;28;20182;-71
2023/09/06 08:55:16;;;;;;;4.60;2.53;;;34.60;93.40;;;;;;5053264;28;20048;-70
2023/09/06 08:57:46;;;;;;;4.40;2.40;;;34.90;93.60;;;;;;5036178;28;20056;-71
2023/09/06 09:00:13;;;;;;;6.43;2.20;;;34.80;93.50;;;;;;5052846;28;20049;-71
2023/09/06 09:02:40;;;;;;;6.50;2.33;;;35.00;93.50;;;;;;5053859;28;20099;-74
2023/09/06 09:05:07;;;;;;;3.75;2.00;;;35.10;93.40;;;;;;5054089;28;20060;-71
2023/09/06 09:07:33;;;;;;;6.22;2.10;;;35.40;93.10;;;;;;5053054;28;20445;-71
2023/09/06 09:10:04;;;;;;;6.53;2.28;;;35.60;92.90;;;;;;5053790;28;20045;-70
2023/09/06 09:12:31;;;;;;;4.85;2.33;;;35.60;92.30;;;;;;5052751;28;20061;-70
2023/09/06 09:14:58;;;;;;;4.18;2.20;;;36.00;92.50;;;;;;5053561;28;20076;-70
2023/09/06 09:17:25;;;;;;;5.38;2.20;;;36.00;92.40;;;;;;5053740;28;20115;-71
2023/09/06 09:19:53;;;;;;;4.47;1.85;;;36.10;92.60;;;;;;5053501;28;20098;-70
2023/09/06 09:22:37;;;;;;;4.80;2.05;;;36.30;92.40;;;;;;5053632;28;20041;-70
2023/09/06 09:25:17;;;;;;;3.50;2.03;;;36.30;92.00;;;;;;5052111;28;20063;-70
2023/09/06 09:27:49;;;;;;;4.32;2.25;;;35.90;92.20;;;;;;5053340;28;20070;-74
2023/09/06 09:30:16;;;;;;;5.43;2.30;;;35.40;92.60;;;;;;5052653;28;20048;-70
2023/09/06 09:32:42;;;;;;;6.57;2.28;;;34.40;92.80;;;;;;5053346;28;20102;-70
2023/09/06 09:35:12;;;;;;;3.70;2.05;;;34.10;93.10;;;;;;5035614;28;20049;-71
2023/09/06 09:37:50;;;;;;;4.80;2.47;;;33.60;93.60;;;;;;5052154;28;20048;-71
2023/09/06 09:40:17;;;;;;;9.02;2.50;;;33.10;94.00;;;;;;5052016;28;20059;-70
2023/09/06 09:42:53;;;;;;;5.25;2.30;;;32.60;94.20;;;;;;5052564;28;20127;-70
2023/09/06 09:45:20;;;;;;;5.30;2.30;;;32.30;94.60;;;;;;5039917;28;20052;-70
2023/09/06 09:47:47;;;;;;;5.85;2.50;;;32.00;94.80;;;;;;5038905;28;20537;-70
2023/09/06 09:50:13;;;;;;;3.80;2.33;;;31.90;95.00;;;;;;5052200;28;20043;-70
2023/09/06 09:52:42;;;;;;;4.55;2.22;;;31.50;95.30;;;;;;5053320;28;20053;-70
2023/09/06 09:55:12;;;;;;;3.60;2.45;;;31.30;95.40;;;;;;5052555;28;20040;-70
2023/09/06 09:57:40;;;;;;;6.18;2.60;;;31.20;95.50;;;;;;5053237;28;20049;-70
2023/09/06 10:00:08;;;;;;;4.47;2.40;;;30.80;95.80;;;;;;5051218;28;20075;-69
2023/09/06 10:02:35;;;;;;;2.92;1.90;;;30.70;96.00;;;;;;5053298;28;20360;-70
2023/09/06 10:05:02;;;;;;;5.10;2.50;;;30.70;96.20;;;;;;5052445;28;20053;-71
2023/09/06 10:07:30;;;;;;;7.13;2.20;;;30.50;96.00;;;;;;5052928;28;20179;-70
2023/09/06 10:09:57;;;;;;;5.80;2.40;;;30.40;96.20;;;;;;5051554;28;20096;-69
2023/09/06 10:12:25;;;;;;;5.55;2.28;;;30.30;96.20;;;;;;5052796;28;20044;-70
2023/09/06 10:14:52;;;;;;;6.90;2.92;;;30.30;96.50;;;;;;5052540;28;20487;-71
2023/09/06 10:17:17;;;;;;;4.50;2.35;;;30.40;96.20;;;;;;5035112;28;20478;-70
2023/09/06 10:19:43;;;;;;;5.45;2.20;;;30.40;96.30;;;;;;5052537;28;20056;-70
2023/09/06 10:22:13;;;;;;;6.75;2.20;;;30.40;96.20;;;;;;5051232;28;20041;-71
2023/09/06 10:24:43;;;;;;;5.28;2.42;;;30.40;95.60;;;;;;5051277;28;20048;-70
2023/09/06 10:27:12;;;;;;;5.68;2.40;;;30.20;95.80;;;;;;5050969;28;20053;-71
2023/09/06 10:29:55;;;;;;;3.55;2.00;;;30.30;95.90;;;;;;5051377;28;20045;-70
2023/09/06 10:32:22;;;;;;;9.48;2.35;;;30.40;96.00;;;;;;5052342;28;20049;-70
2023/09/06 10:35:20;;;;;;;6.00;2.28;;;30.30;95.60;;;;;;5051520;28;20045;-70
2023/09/06 10:38:06;;;;;;;3.78;2.20;;;30.20;95.50;;;;;;5034865;28;20041;-70
2023/09/06 10:40:47;;;;;;;4.72;2.05;;;30.10;95.30;;;;;;5051175;28;20049;-69
2023/09/06 10:43:14;;;;;;;7.00;2.03;;;30.20;95.20;;;;;;5037441;28;20052;-70
2023/09/06 10:45:43;;;;;;;9.88;2.25;;;30.10;94.60;;;;;;5052359;28;20049;-71
2023/09/06 10:48:11;;;;;;;3.08;1.92;;;30.10;94.70;;;;;;5051666;28;20418;-70
2023/09/06 10:50:37;;;;;;;3.35;2.00;;;30.10;94.50;;;;;;5052289;28;20040;-71
2023/09/06 10:53:04;;;;;;;11.10;2.50;;;30.10;94.40;;;;;;5033423;28;20045;-70
2023/09/06 10:55:46;;;;;;;6.07;2.22;;;30.00;94.50;;;;;;5052245;28;20049;-71
2023/09/06 10:58:12;;;;;;;5.25;2.00;;;30.00;94.50;;;;;;5051555;28;20040;-70
2023/09/06 11:00:40;;;;;;;7.13;2.30;;;29.90;94.40;;;;;;5051972;28;20044;-70
2023/09/06 11:03:06;;;;;;;6.28;2.38;;;29.80;94.20;;;;;;5050454;28;20053;-69
2023/09/06 11:05:42;;;;;;;4.38;2.17;;;29.80;94.50;;;;;;5084494;28;20049;-70
2023/09/06 11:08:09;;;;;;;4.88;2.17;;;29.80;94.50;;;;;;5051685;28;20052;-71
2023/09/06 11:10:36;;;;;;;4.55;1.85;;;29.90;94.20;;;;;;5051824;28;20103;-71
2023/09/06 11:13:12;;;;;;;5.32;1.90;;;30.10;94.00;;;;;;5050546;28;20040;-69
2023/09/06 11:15:39;;;;;;;3.85;1.88;;;30.10;93.70;;;;;;5050959;28;20563;-71
2023/09/06 11:18:05;;;;;;;3.33;2.00;;;30.20;94.20;;;;;;5033909;28;20364;-69
2023/09/06 11:20:33;;;;;;;5.00;2.40;;;30.20;94.30;;;;;;5034121;28;20107;-70
2023/09/06 11:23:00;;;;;;;17.08;2.80;;;30.20;94.50;;;;;;5050474;28;20049;-70
2023/09/06 11:25:28;;;;;;;4.60;2.08;;;30.20;94.30;;;;;;5050645;28;20048;-70
2023/09/06 11:27:59;;;;;;;4.55;1.92;;;30.10;93.90;;;;;;5051952;28;20136;-71
2023/09/06 11:30:26;;;;;;;4.63;2.13;;;30.10;94.00;;;;;;5050771;28;20055;-70
2023/09/06 11:32:56;;;;;;;6.07;3.30;;;30.00;94.00;;;;;;5051643;28;20052;-71
2023/09/06 11:35:48;;;;;;;4.60;2.53;;;29.90;94.20;;;;;;5051178;28;20498;-70
2023/09/06 11:38:16;;;;;;;3.67;2.00;;;29.90;94.40;;;;;;5033837;28;20076;-70
2023/09/06 11:40:44;;;;;;;4.07;2.50;;;29.90;94.40;;;;;;5083751;28;20509;-71
2023/09/06 11:43:13;;;;;;;8.43;3.63;;;29.90;94.40;;;;;;5049671;28;20060;-69
2023/09/06 11:45:43;;;;;;;17.15;2.80;;;30.00;94.40;;;;;;5034433;28;20071;-70
2023/09/06 11:48:09;;;;;;;4.40;2.28;;;30.10;94.40;;;;;;5049954;28;20451;-70
2023/09/06 11:50:38;;;;;;;3.53;2.35;;;30.20;94.50;;;;;;5050826;28;20045;-71
2023/09/06 11:53:09;;;;;;;5.18;2.30;;;30.20;94.40;;;;;;5049759;28;20128;-71
2023/09/06 11:55:42;;;;;;;5.35;2.90;;;30.20;94.40;;;;;;5034021;28;20352;-70
2023/09/06 11:58:16;;;;;;;4.45;2.40;;;30.30;94.40;;;;;;5083805;28;20056;-70
2023/09/06 12:00:47;;;;;;;5.38;2.40;;;30.20;94.60;;;;;;5038503;28;20048;-70
2023/09/06 12:03:27;;;;;;;5.20;2.45;;;30.20;94.90;;;;;;5033717;28;20057;-70
2023/09/06 12:05:56;;;;;;;6.88;2.58;;;30.40;94.50;;;;;;5042042;28;20049;-70
2023/09/06 12:08:23;;;;;;;7.40;3.55;;;30.50;94.40;;;;;;5053591;28;20045;-71
2023/09/06 12:10:54;;;;;;;8.15;2.67;;;30.50;94.30;;;;;;5041788;28;20120;-70
2023/09/06 12:13:29;;;;;;;3.13;1.70;;;30.60;94.00;;;;;;5054768;28;20051;-70
2023/09/06 12:16:02;;;;;;;5.25;2.33;;;30.60;94.20;;;;;;5041485;28;20072;-70
2023/09/06 12:18:29;;;;;;;3.97;2.15;;;30.60;94.20;;;;;;5054727;28;20049;-71
2023/09/06 12:20:56;;;;;;;3.60;2.33;;;30.60;94.40;;;;;;5020872;28;20124;-70
2023/09/06 12:23:22;;;;;;;2.53;1.75;;;30.60;93.90;;;;;;5054577;28;20048;-70
2023/09/06 12:25:48;;;;;;;3.10;2.05;;;30.70;93.80;;;;;;5053452;28;20045;-71
2023/09/06 12:28:14;;;;;;;6.85;2.22;;;30.60;93.40;;;;;;5036942;28;20045;-70
2023/09/06 12:30:40;;;;;;;4.50;1.80;;;30.60;93.10;;;;;;5054630;28;20122;-71
2023/09/06 12:33:06;;;;;;;8.60;4.15;;;30.60;93.10;;;;;;5053842;28;20044;-70
2023/09/06 12:35:38;;;;;;;4.68;2.28;;;30.60;93.40;;;;;;5053220;28;20041;-70
2023/09/06 12:38:06;;;;;;;6.25;3.30;;;30.70;93.10;;;;;;5073641;28;20044;-70
2023/09/06 12:40:33;;;;;;;3.63;2.20;;;30.70;93.50;;;;;;5054405;28;20048;-70
2023/09/06 12:42:59;;;;;;;6.07;2.28;;;30.70;93.50;;;;;;5053310;28;20135;-70